createdAt,value
2024-02-10T00:00:41.672Z,664.00
2024-02-10T00:01:41.830Z,666.00
2024-02-10T00:02:41.803Z,673.00
2024-02-10T00:03:41.890Z,668.00
2024-02-10T00:04:42.021Z,666.00
2024-02-10T00:05:42.042Z,666.00
2024-02-10T00:06:42.075Z,665.00
2024-02-10T00:07:42.165Z,663.00
2024-02-10T00:08:42.147Z,661.00
2024-02-10T00:09:42.200Z,662.00
2024-02-10T00:10:42.266Z,662.00
2024-02-10T00:11:42.309Z,664.00
2024-02-10T00:12:42.355Z,663.00
2024-02-10T00:13:42.469Z,663.00
2024-02-10T00:14:42.468Z,663.00
2024-02-10T00:15:42.526Z,663.00
2024-02-10T00:16:42.644Z,664.00
2024-02-10T00:17:42.679Z,664.00
2024-02-10T00:18:42.754Z,666.00
2024-02-10T00:19:42.805Z,665.00
2024-02-10T00:20:42.842Z,662.00
2024-02-10T00:21:42.898Z,661.00
2024-02-10T00:22:42.966Z,660.00
2024-02-10T00:23:43.014Z,660.00
2024-02-10T00:24:43.025Z,663.00
2024-02-10T00:25:43.098Z,661.00
2024-02-10T00:26:43.138Z,658.00
2024-02-10T00:27:43.196Z,663.00
2024-02-10T00:28:43.267Z,662.00
2024-02-10T00:29:43.301Z,660.00
2024-02-10T00:30:43.371Z,662.00
2024-02-10T00:31:43.476Z,660.00
2024-02-10T00:32:43.533Z,657.00
2024-02-10T00:33:43.611Z,660.00
2024-02-10T00:34:43.722Z,659.00
2024-02-10T00:35:43.687Z,657.00
2024-02-10T00:36:43.764Z,657.00
2024-02-10T00:37:43.832Z,658.00
2024-02-10T00:38:43.880Z,658.00
2024-02-10T00:39:43.941Z,657.00
2024-02-10T00:40:44.047Z,658.00
2024-02-10T00:41:44.088Z,660.00
2024-02-10T00:42:44.145Z,657.00
2024-02-10T00:43:44.224Z,657.00
2024-02-10T00:44:44.262Z,655.00
2024-02-10T00:45:44.353Z,654.00
2024-02-10T00:46:44.447Z,656.00
2024-02-10T00:47:44.527Z,656.00
2024-02-10T00:48:44.600Z,658.00
2024-02-10T00:49:44.601Z,655.00
2024-02-10T00:50:44.646Z,654.00
2024-02-10T00:51:44.709Z,652.00
2024-02-10T00:52:44.848Z,655.00
2024-02-10T00:53:44.853Z,654.00
2024-02-10T00:54:44.897Z,656.00
2024-02-10T00:55:44.993Z,654.00
2024-02-10T00:56:45.026Z,653.00
2024-02-10T00:57:45.105Z,654.00
2024-02-10T00:58:45.166Z,652.00
2024-02-10T00:59:45.239Z,651.00
2024-02-10T01:00:45.329Z,654.00
2024-02-10T01:01:45.351Z,654.00
2024-02-10T01:02:45.382Z,652.00
2024-02-10T01:03:45.525Z,655.00
2024-02-10T01:04:45.607Z,653.00
2024-02-10T01:05:45.623Z,654.00
2024-02-10T01:06:45.656Z,654.00
2024-02-10T01:07:45.771Z,651.00
2024-02-10T01:08:45.788Z,649.00
2024-02-10T01:09:45.849Z,653.00
2024-02-10T01:10:45.925Z,648.00
2024-02-10T01:11:45.979Z,650.00
2024-02-10T01:12:46.018Z,648.00
2024-02-10T01:13:46.117Z,647.00
2024-02-10T01:14:46.156Z,650.00
2024-02-10T01:15:46.238Z,651.00
2024-02-10T01:16:46.295Z,652.00
2024-02-10T01:17:46.377Z,649.00
2024-02-10T01:18:46.446Z,647.00
2024-02-10T01:19:46.499Z,648.00
2024-02-10T01:20:46.540Z,652.00
2024-02-10T01:21:46.632Z,649.00
2024-02-10T01:22:46.902Z,646.00
2024-02-10T01:23:46.808Z,646.00
2024-02-10T01:24:46.777Z,649.00
2024-02-10T01:25:46.861Z,651.00
2024-02-10T01:26:46.894Z,649.00
2024-02-10T01:27:46.964Z,648.00
2024-02-10T01:28:47.085Z,646.00
2024-02-10T01:29:47.080Z,647.00
2024-02-10T01:30:47.134Z,647.00
2024-02-10T01:31:47.224Z,648.00
2024-02-10T01:32:47.415Z,650.00
2024-02-10T01:33:47.373Z,648.00
2024-02-10T01:34:47.426Z,645.00
2024-02-10T01:35:47.454Z,644.00
2024-02-10T01:36:47.542Z,644.00
2024-02-10T01:37:47.683Z,647.00
2024-02-10T01:38:47.667Z,646.00
2024-02-10T01:39:47.760Z,642.00
2024-02-10T01:40:47.815Z,644.00
2024-02-10T01:41:47.870Z,643.00
2024-02-10T01:42:47.963Z,644.00
2024-02-10T01:43:48.013Z,643.00
2024-02-10T01:44:48.038Z,645.00
2024-02-10T01:45:48.094Z,642.00
2024-02-10T01:46:48.228Z,643.00
2024-02-10T01:47:48.257Z,641.00
2024-02-10T01:48:48.327Z,640.00
2024-02-10T01:49:48.622Z,639.00
2024-02-10T01:50:48.483Z,641.00
2024-02-10T01:51:48.491Z,639.00
2024-02-10T01:52:48.623Z,639.00
2024-02-10T01:53:48.641Z,637.00
2024-02-10T01:54:48.735Z,641.00
2024-02-10T01:55:48.741Z,638.00
2024-02-10T01:56:48.779Z,636.00
2024-02-10T01:57:48.821Z,640.00
2024-02-10T01:58:49.181Z,637.00
2024-02-10T01:59:48.949Z,637.00
2024-02-10T02:00:49.062Z,636.00
2024-02-10T02:01:49.080Z,636.00
2024-02-10T02:02:49.102Z,639.00
2024-02-10T02:03:49.191Z,642.00
2024-02-10T02:04:49.249Z,637.00
2024-02-10T02:05:49.285Z,637.00
2024-02-10T02:06:49.310Z,636.00
2024-02-10T02:07:49.375Z,635.00
2024-02-10T02:08:49.808Z,635.00
2024-02-10T02:09:49.499Z,630.00
2024-02-10T02:10:49.659Z,639.00
2024-02-10T02:11:49.619Z,637.00
2024-02-10T02:12:49.849Z,635.00
2024-02-10T02:13:49.839Z,633.00
2024-02-10T02:14:49.814Z,630.00
2024-02-10T02:15:49.861Z,634.00
2024-02-10T02:16:50.105Z,635.00
2024-02-10T02:17:50.034Z,633.00
2024-02-10T02:18:50.095Z,631.00
2024-02-10T02:19:50.208Z,633.00
2024-02-10T02:20:50.206Z,634.00
2024-02-10T02:21:50.253Z,632.00
2024-02-10T02:22:50.447Z,629.00
2024-02-10T02:23:50.388Z,632.00
2024-02-10T02:24:50.456Z,632.00
2024-02-10T02:25:50.598Z,632.00
2024-02-10T02:26:50.572Z,627.00
2024-02-10T02:27:50.723Z,633.00
2024-02-10T02:28:50.761Z,630.00
2024-02-10T02:29:50.757Z,631.00
2024-02-10T02:30:50.827Z,630.00
2024-02-10T02:31:50.934Z,633.00
2024-02-10T02:32:51.060Z,631.00
2024-02-10T02:33:51.015Z,630.00
2024-02-10T02:34:51.151Z,631.00
2024-02-10T02:35:51.148Z,628.00
2024-02-10T02:36:51.207Z,629.00
2024-02-10T02:37:51.281Z,629.00
2024-02-10T02:38:51.331Z,630.00
2024-02-10T02:39:51.406Z,624.00
2024-02-10T02:40:51.583Z,630.00
2024-02-10T02:41:51.518Z,630.00
2024-02-10T02:42:51.586Z,631.00
2024-02-10T02:43:51.734Z,628.00
2024-02-10T02:44:51.712Z,630.00
2024-02-10T02:45:51.776Z,628.00
2024-02-10T02:46:51.861Z,630.00
2024-02-10T02:47:51.934Z,630.00
2024-02-10T02:48:52.063Z,632.00
2024-02-10T02:49:52.025Z,626.00
2024-02-10T02:50:52.074Z,628.00
2024-02-10T02:51:52.126Z,630.00
2024-02-10T02:52:52.281Z,631.00
2024-02-10T02:53:52.263Z,628.00
2024-02-10T02:54:52.315Z,629.00
2024-02-10T02:55:52.399Z,626.00
2024-02-10T02:56:52.435Z,629.00
2024-02-10T02:57:52.492Z,628.00
2024-02-10T02:58:52.758Z,627.00
2024-02-10T02:59:52.593Z,628.00
2024-02-10T03:00:52.673Z,625.00
2024-02-10T03:01:53.104Z,627.00
2024-02-10T03:02:52.752Z,625.00
2024-02-10T03:03:52.829Z,627.00
2024-02-10T03:04:52.921Z,623.00
2024-02-10T03:05:52.921Z,626.00
2024-02-10T03:06:53.032Z,623.00
2024-02-10T03:07:53.163Z,628.00
2024-02-10T03:08:53.119Z,626.00
2024-02-10T03:09:53.175Z,626.00
2024-02-10T03:10:53.315Z,622.00
2024-02-10T03:11:53.331Z,624.00
2024-02-10T03:12:53.366Z,623.00
2024-02-10T03:13:53.551Z,623.00
2024-02-10T03:14:53.484Z,624.00
2024-02-10T03:15:53.551Z,622.00
2024-02-10T03:16:53.659Z,626.00
2024-02-10T03:17:53.732Z,622.00
2024-02-10T03:18:53.787Z,624.00
2024-02-10T03:19:53.857Z,620.00
2024-02-10T03:20:53.901Z,623.00
2024-02-10T03:21:53.968Z,622.00
2024-02-10T03:22:54.040Z,623.00
2024-02-10T03:23:54.073Z,624.00
2024-02-10T03:24:54.148Z,622.00
2024-02-10T03:25:54.264Z,625.00
2024-02-10T03:26:54.269Z,621.00
2024-02-10T03:27:54.343Z,621.00
2024-02-10T03:28:54.419Z,621.00
2024-02-10T03:29:54.455Z,620.00
2024-02-10T03:30:54.518Z,622.00
2024-02-10T03:31:54.642Z,620.00
2024-02-10T03:32:54.792Z,619.00
2024-02-10T03:33:54.868Z,619.00
2024-02-10T03:34:54.886Z,621.00
2024-02-10T03:35:54.876Z,620.00
2024-02-10T03:36:54.889Z,618.00
2024-02-10T03:37:55.069Z,621.00
2024-02-10T03:38:55.048Z,620.00
2024-02-10T03:39:55.083Z,619.00
2024-02-10T03:40:55.259Z,618.00
2024-02-10T03:41:55.195Z,616.00
2024-02-10T03:42:55.265Z,618.00
2024-02-10T03:43:55.428Z,618.00
2024-02-10T03:44:55.396Z,619.00
2024-02-10T03:45:55.462Z,622.00
2024-02-10T03:46:55.595Z,619.00
2024-02-10T03:47:55.670Z,620.00
2024-02-10T03:48:55.688Z,616.00
2024-02-10T03:49:55.963Z,614.00
2024-02-10T03:50:55.772Z,622.00
2024-02-10T03:51:55.854Z,618.00
2024-02-10T03:52:55.952Z,617.00
2024-02-10T03:53:55.965Z,617.00
2024-02-10T03:54:56.039Z,617.00
2024-02-10T03:55:56.206Z,618.00
2024-02-10T03:56:56.159Z,616.00
2024-02-10T03:57:56.226Z,617.00
2024-02-10T03:58:56.352Z,617.00
2024-02-10T03:59:56.395Z,616.00
2024-02-10T04:00:56.431Z,616.00
2024-02-10T04:01:56.534Z,620.00
2024-02-10T04:02:56.561Z,615.00
2024-02-10T04:03:56.687Z,616.00
2024-02-10T04:04:56.746Z,616.00
2024-02-10T04:05:56.774Z,612.00
2024-02-10T04:06:56.921Z,614.00
2024-02-10T04:07:56.935Z,617.00
2024-02-10T04:08:56.962Z,612.00
2024-02-10T04:09:57.033Z,615.00
2024-02-10T04:10:57.193Z,614.00
2024-02-10T04:11:57.187Z,614.00
2024-02-10T04:12:57.308Z,614.00
2024-02-10T04:13:57.417Z,614.00
2024-02-10T04:14:57.354Z,610.00
2024-02-10T04:15:57.415Z,612.00
2024-02-10T04:16:57.602Z,612.00
2024-02-10T04:17:57.651Z,610.00
2024-02-10T04:18:57.653Z,608.00
2024-02-10T04:19:57.684Z,607.00
2024-02-10T04:20:57.764Z,610.00
2024-02-10T04:21:57.819Z,613.00
2024-02-10T04:22:57.915Z,610.00
2024-02-10T04:23:57.947Z,609.00
2024-02-10T04:24:58.006Z,611.00
2024-02-10T04:25:58.195Z,609.00
2024-02-10T04:26:58.149Z,609.00
2024-02-10T04:27:58.219Z,610.00
2024-02-10T04:28:58.384Z,611.00
2024-02-10T04:29:58.346Z,608.00
2024-02-10T04:30:58.429Z,606.00
2024-02-10T04:31:58.592Z,607.00
2024-02-10T04:32:58.612Z,609.00
2024-02-10T04:33:58.728Z,611.00
2024-02-10T04:34:58.751Z,608.00
2024-02-10T04:35:58.751Z,612.00
2024-02-10T04:36:58.794Z,606.00
2024-02-10T04:37:58.934Z,607.00
2024-02-10T04:38:58.927Z,611.00
2024-02-10T04:39:58.986Z,607.00
2024-02-10T04:40:59.144Z,606.00
2024-02-10T04:41:59.129Z,610.00
2024-02-10T04:42:59.216Z,607.00
2024-02-10T04:43:59.315Z,608.00
2024-02-10T04:44:59.307Z,605.00
2024-02-10T04:45:59.365Z,609.00
2024-02-10T04:46:59.464Z,606.00
2024-02-10T04:48:06.871Z,600.00
2024-02-10T04:49:06.837Z,600.00
2024-02-10T04:50:06.836Z,600.00
2024-02-10T04:51:06.787Z,600.00
2024-02-10T04:52:06.785Z,600.00
2024-02-10T04:53:06.781Z,601.00
2024-02-10T04:54:06.794Z,603.00
2024-02-10T04:55:06.789Z,605.00
2024-02-10T04:56:06.865Z,602.00
2024-02-10T04:57:06.789Z,603.00
2024-02-10T04:58:06.793Z,602.00
2024-02-10T04:59:06.863Z,601.00
2024-02-10T05:00:06.808Z,605.00
2024-02-10T05:01:06.894Z,600.00
2024-02-10T05:02:06.841Z,601.00
2024-02-10T05:03:06.866Z,600.00
2024-02-10T05:04:06.798Z,604.00
2024-02-10T05:05:06.864Z,600.00
2024-02-10T05:06:06.856Z,606.00
2024-02-10T05:07:06.827Z,601.00
2024-02-10T05:08:06.844Z,604.00
2024-02-10T05:09:06.811Z,602.00
2024-02-10T05:10:06.837Z,604.00
2024-02-10T05:11:06.892Z,603.00
2024-02-10T05:12:06.938Z,605.00
2024-02-10T05:13:06.970Z,606.00
2024-02-10T05:14:07.036Z,607.00
2024-02-10T05:15:07.078Z,603.00
2024-02-10T05:16:07.136Z,604.00
2024-02-10T05:17:07.196Z,605.00
2024-02-10T05:18:07.403Z,604.00
2024-02-10T05:19:07.399Z,606.00
2024-02-10T05:20:07.453Z,602.00
2024-02-10T05:21:07.420Z,601.00
2024-02-10T05:22:07.475Z,604.00
2024-02-10T05:23:07.538Z,603.00
2024-02-10T05:24:07.601Z,606.00
2024-02-10T05:25:07.675Z,603.00
2024-02-10T05:26:07.703Z,601.00
2024-02-10T05:27:07.756Z,601.00
2024-02-10T05:28:07.841Z,606.00
2024-02-10T05:29:07.878Z,607.00
2024-02-10T05:30:07.919Z,604.00
2024-02-10T05:31:07.982Z,604.00
2024-02-10T05:32:08.034Z,605.00
2024-02-10T05:33:08.132Z,605.00
2024-02-10T05:34:08.200Z,604.00
2024-02-10T05:35:08.230Z,604.00
2024-02-10T05:36:08.247Z,603.00
2024-02-10T05:37:08.313Z,605.00
2024-02-10T05:38:08.390Z,605.00
2024-02-10T05:39:08.502Z,607.00
2024-02-10T05:40:08.475Z,604.00
2024-02-10T05:41:08.593Z,604.00
2024-02-10T05:42:08.596Z,603.00
2024-02-10T05:43:08.695Z,605.00
2024-02-10T05:44:08.717Z,606.00
2024-02-10T05:45:08.768Z,604.00
2024-02-10T05:46:08.826Z,605.00
2024-02-10T05:47:11.304Z,604.00
2024-02-10T05:48:08.980Z,604.00
2024-02-10T05:49:08.911Z,604.00
2024-02-10T05:50:08.910Z,605.00
2024-02-10T05:51:08.901Z,603.00
2024-02-10T05:52:08.892Z,606.00
2024-02-10T05:53:09.038Z,606.00
2024-02-10T05:54:08.902Z,607.00
2024-02-10T05:55:08.896Z,600.00
2024-02-10T05:56:08.977Z,609.00
2024-02-10T05:57:08.908Z,604.00
2024-02-10T05:58:08.900Z,603.00
2024-02-10T05:59:08.916Z,604.00
2024-02-10T06:00:08.918Z,604.00
2024-02-10T06:01:08.938Z,606.00
2024-02-10T06:02:08.960Z,606.00
2024-02-10T06:03:08.938Z,606.00
2024-02-10T06:04:08.971Z,606.00
2024-02-10T06:05:09.007Z,603.00
2024-02-10T06:06:08.995Z,601.00
2024-02-10T06:07:08.911Z,601.00
2024-02-10T06:08:08.955Z,602.00
2024-02-10T06:09:09.041Z,604.00
2024-02-10T06:10:09.065Z,605.00
2024-02-10T06:11:09.137Z,603.00
2024-02-10T06:12:09.183Z,602.00
2024-02-10T06:13:09.228Z,602.00
2024-02-10T06:14:09.360Z,603.00
2024-02-10T06:15:09.359Z,604.00
2024-02-10T06:16:09.425Z,606.00
2024-02-10T06:17:09.469Z,602.00
2024-02-10T06:18:09.611Z,603.00
2024-02-10T06:19:09.640Z,601.00
2024-02-10T06:20:09.697Z,603.00
2024-02-10T06:21:09.707Z,603.00
2024-02-10T06:22:09.764Z,601.00
2024-02-10T06:23:09.830Z,600.00
2024-02-10T06:24:09.879Z,601.00
2024-02-10T06:25:09.930Z,601.00
2024-02-10T06:26:10.068Z,605.00
2024-02-10T06:27:10.060Z,603.00
2024-02-10T06:28:10.115Z,603.00
2024-02-10T06:29:10.204Z,606.00
2024-02-10T06:30:10.245Z,605.00
2024-02-10T06:31:10.333Z,607.00
2024-02-10T06:32:10.469Z,602.00
2024-02-10T06:33:10.575Z,605.00
2024-02-10T06:34:10.572Z,605.00
2024-02-10T06:35:10.712Z,603.00
2024-02-10T06:36:10.572Z,604.00
2024-02-10T06:37:10.642Z,605.00
2024-02-10T06:38:13.474Z,606.00
2024-02-10T06:39:10.690Z,606.00
2024-02-10T06:40:10.714Z,605.00
2024-02-10T06:41:10.732Z,607.00
2024-02-10T06:42:10.710Z,604.00
2024-02-10T06:43:10.705Z,606.00
2024-02-10T06:44:10.693Z,602.00
2024-02-10T06:45:10.696Z,601.00
2024-02-10T06:46:10.709Z,605.00
2024-02-10T06:47:10.730Z,602.00
2024-02-10T06:48:10.874Z,601.00
2024-02-10T06:49:10.773Z,605.00
2024-02-10T06:50:10.704Z,600.00
2024-02-10T06:51:10.701Z,603.00
2024-02-10T06:52:10.702Z,607.00
2024-02-10T06:53:10.768Z,601.00
2024-02-10T06:54:10.711Z,607.00
2024-02-10T06:55:10.720Z,606.00
2024-02-10T06:56:10.744Z,601.00
2024-02-10T06:57:10.717Z,603.00
2024-02-10T06:58:10.726Z,602.00
2024-02-10T06:59:10.728Z,606.00
2024-02-10T07:00:10.783Z,604.00
2024-02-10T07:01:12.178Z,603.00
2024-02-10T07:02:10.792Z,604.00
2024-02-10T07:03:10.767Z,603.00
2024-02-10T07:04:10.727Z,604.00
2024-02-10T07:05:11.071Z,608.00
2024-02-10T07:06:10.988Z,603.00
2024-02-10T07:07:10.722Z,604.00
2024-02-10T07:08:10.723Z,603.00
2024-02-10T07:09:10.728Z,601.00
2024-02-10T07:10:10.735Z,606.00
2024-02-10T07:11:10.733Z,605.00
2024-02-10T07:12:10.735Z,601.00
2024-02-10T07:13:10.734Z,604.00
2024-02-10T07:14:10.743Z,605.00
2024-02-10T07:15:10.748Z,602.00
2024-02-10T07:16:10.733Z,602.00
2024-02-10T07:17:10.748Z,605.00
2024-02-10T07:18:10.936Z,606.00
2024-02-10T07:19:10.856Z,603.00
2024-02-10T07:20:10.762Z,607.00
2024-02-10T07:21:10.755Z,603.00
2024-02-10T07:22:10.759Z,607.00
2024-02-10T07:23:10.749Z,606.00
2024-02-10T07:24:10.766Z,608.00
2024-02-10T07:25:10.749Z,602.00
2024-02-10T07:26:10.753Z,603.00
2024-02-10T07:27:10.755Z,605.00
2024-02-10T07:28:11.013Z,603.00
2024-02-10T07:29:10.766Z,603.00
2024-02-10T07:30:10.770Z,604.00
2024-02-10T07:31:13.354Z,606.00
2024-02-10T07:32:10.754Z,608.00
2024-02-10T07:33:12.231Z,605.00
2024-02-10T07:34:10.773Z,605.00
2024-02-10T07:35:10.804Z,605.00
2024-02-10T07:36:10.781Z,606.00
2024-02-10T07:37:10.755Z,606.00
2024-02-10T07:38:11.390Z,604.00
2024-02-10T07:39:10.860Z,606.00
2024-02-10T07:40:10.881Z,604.00
2024-02-10T07:41:11.020Z,605.00
2024-02-10T07:42:11.000Z,605.00
2024-02-10T07:43:11.066Z,605.00
2024-02-10T07:44:11.133Z,601.00
2024-02-10T07:45:11.182Z,602.00
2024-02-10T07:46:11.237Z,605.00
2024-02-10T07:47:11.297Z,605.00
2024-02-10T07:48:11.452Z,604.00
2024-02-10T07:49:11.428Z,605.00
2024-02-10T07:50:11.475Z,605.00
2024-02-10T07:51:11.524Z,603.00
2024-02-10T07:52:11.590Z,604.00
2024-02-10T07:53:11.685Z,608.00
2024-02-10T07:54:11.725Z,605.00
2024-02-10T07:55:11.812Z,605.00
2024-02-10T07:56:11.846Z,604.00
2024-02-10T07:57:11.912Z,603.00
2024-02-10T07:58:11.958Z,607.00
2024-02-10T07:59:12.177Z,605.00
2024-02-10T08:00:12.093Z,600.00
2024-02-10T08:01:12.178Z,608.00
2024-02-10T08:02:12.323Z,606.00
2024-02-10T08:03:12.291Z,605.00
2024-02-10T08:04:12.329Z,604.00
2024-02-10T08:05:13.901Z,605.00
2024-02-10T08:06:12.438Z,607.00
2024-02-10T08:07:12.397Z,603.00
2024-02-10T08:08:12.740Z,605.00
2024-02-10T08:09:12.426Z,605.00
2024-02-10T08:10:12.395Z,603.00
2024-02-10T08:11:12.468Z,606.00
2024-02-10T08:12:12.402Z,608.00
2024-02-10T08:13:12.397Z,606.00
2024-02-10T08:14:12.416Z,605.00
2024-02-10T08:15:12.427Z,606.00
2024-02-10T08:16:12.457Z,604.00
2024-02-10T08:17:12.478Z,603.00
2024-02-10T08:18:12.479Z,603.00
2024-02-10T08:19:12.476Z,605.00
2024-02-10T08:20:12.757Z,604.00
2024-02-10T08:21:12.413Z,607.00
2024-02-10T08:22:12.412Z,603.00
2024-02-10T08:23:12.413Z,600.00
2024-02-10T08:24:12.418Z,608.00
2024-02-10T08:25:12.415Z,602.00
2024-02-10T08:26:12.462Z,605.00
2024-02-10T08:27:12.425Z,603.00
2024-02-10T08:28:12.594Z,603.00
2024-02-10T08:29:12.487Z,606.00
2024-02-10T08:30:12.466Z,604.00
2024-02-10T08:31:12.419Z,605.00
2024-02-10T08:32:12.435Z,602.00
2024-02-10T08:33:12.499Z,604.00
2024-02-10T08:34:12.513Z,605.00
2024-02-10T08:35:12.459Z,603.00
2024-02-10T08:36:12.439Z,604.00
2024-02-10T08:37:12.433Z,603.00
2024-02-10T08:38:12.447Z,606.00
2024-02-10T08:39:12.473Z,603.00
2024-02-10T08:40:12.551Z,603.00
2024-02-10T08:41:12.609Z,602.00
2024-02-10T08:42:12.666Z,602.00
2024-02-10T08:43:12.722Z,605.00
2024-02-10T08:44:12.803Z,606.00
2024-02-10T08:45:12.872Z,603.00
2024-02-10T08:46:12.956Z,606.00
2024-02-10T08:47:12.983Z,603.00
2024-02-10T08:48:13.096Z,601.00
2024-02-10T08:49:13.205Z,601.00
2024-02-10T08:50:13.275Z,605.00
2024-02-10T08:51:13.222Z,604.00
2024-02-10T08:52:16.627Z,606.00
2024-02-10T08:53:13.332Z,606.00
2024-02-10T08:54:13.304Z,603.00
2024-02-10T08:55:13.299Z,605.00
2024-02-10T08:56:13.329Z,604.00
2024-02-10T08:57:13.305Z,605.00
2024-02-10T08:58:13.299Z,601.00
2024-02-10T08:59:13.303Z,608.00
2024-02-10T09:00:13.306Z,606.00
2024-02-10T09:01:13.373Z,602.00
2024-02-10T09:02:13.340Z,604.00
2024-02-10T09:03:13.339Z,604.00
2024-02-10T09:04:13.334Z,604.00
2024-02-10T09:05:13.481Z,604.00
2024-02-10T09:06:13.328Z,603.00
2024-02-10T09:07:13.308Z,603.00
2024-02-10T09:08:13.370Z,602.00
2024-02-10T09:09:13.333Z,604.00
2024-02-10T09:10:13.316Z,603.00
2024-02-10T09:11:13.320Z,603.00
2024-02-10T09:12:13.322Z,608.00
2024-02-10T09:13:13.376Z,604.00
2024-02-10T09:14:13.453Z,604.00
2024-02-10T09:15:13.521Z,609.00
2024-02-10T09:16:13.615Z,606.00
2024-02-10T09:17:13.730Z,604.00
2024-02-10T09:18:13.867Z,607.00
2024-02-10T09:19:13.799Z,604.00
2024-02-10T09:20:13.880Z,608.00
2024-02-10T09:21:13.888Z,607.00
2024-02-10T09:22:13.938Z,608.00
2024-02-10T09:23:14.012Z,606.00
2024-02-10T09:24:14.058Z,606.00
2024-02-10T09:25:14.120Z,608.00
2024-02-10T09:26:14.192Z,607.00
2024-02-10T09:27:14.238Z,604.00
2024-02-10T09:28:14.295Z,608.00
2024-02-10T09:29:14.373Z,608.00
2024-02-10T09:30:14.441Z,605.00
2024-02-10T09:31:16.050Z,604.00
2024-02-10T09:32:14.499Z,606.00
2024-02-10T09:33:14.550Z,609.00
2024-02-10T09:34:14.601Z,606.00
2024-02-10T09:35:18.189Z,608.00
2024-02-10T09:36:15.578Z,608.00
2024-02-10T09:37:14.503Z,608.00
2024-02-10T09:38:14.898Z,610.00
2024-02-10T09:39:14.516Z,609.00
2024-02-10T09:40:14.520Z,611.00
2024-02-10T09:41:14.506Z,605.00
2024-02-10T09:42:14.513Z,610.00
2024-02-10T09:43:14.516Z,609.00
2024-02-10T09:44:14.564Z,605.00
2024-02-10T09:45:14.616Z,606.00
2024-02-10T09:46:14.693Z,607.00
2024-02-10T09:47:14.762Z,605.00
2024-02-10T09:48:14.911Z,610.00
2024-02-10T09:49:15.071Z,609.00
2024-02-10T09:50:23.722Z,608.00
2024-02-10T09:51:15.978Z,608.00
2024-02-10T09:52:14.954Z,609.00
2024-02-10T09:53:14.961Z,609.00
2024-02-10T09:54:15.450Z,609.00
2024-02-10T09:55:15.010Z,607.00
2024-02-10T09:56:15.102Z,607.00
2024-02-10T09:57:14.969Z,610.00
2024-02-10T09:58:14.971Z,610.00
2024-02-10T09:59:15.009Z,609.00
2024-02-10T10:00:15.066Z,609.00
2024-02-10T10:01:15.286Z,606.00
2024-02-10T10:02:15.215Z,606.00
2024-02-10T10:03:15.328Z,609.00
2024-02-10T10:04:15.284Z,608.00
2024-02-10T10:05:15.587Z,607.00
2024-02-10T10:06:15.550Z,609.00
2024-02-10T10:07:15.464Z,614.00
2024-02-10T10:08:15.523Z,608.00
2024-02-10T10:09:15.609Z,606.00
2024-02-10T10:10:15.622Z,605.00
2024-02-10T10:11:15.695Z,608.00
2024-02-10T10:12:15.725Z,609.00
2024-02-10T10:13:15.796Z,608.00
2024-02-10T10:14:15.866Z,607.00
2024-02-10T10:15:15.915Z,609.00
2024-02-10T10:16:15.961Z,609.00
2024-02-10T10:17:16.200Z,608.00
2024-02-10T10:18:16.311Z,608.00
2024-02-10T10:19:16.126Z,606.00
2024-02-10T10:20:16.181Z,610.00
2024-02-10T10:21:16.229Z,611.00
2024-02-10T10:22:16.292Z,611.00
2024-02-10T10:23:16.341Z,608.00
2024-02-10T10:24:16.378Z,610.00
2024-02-10T10:25:16.431Z,611.00
2024-02-10T10:26:16.535Z,611.00
2024-02-10T10:27:16.545Z,613.00
2024-02-10T10:28:16.592Z,613.00
2024-02-10T10:29:16.640Z,614.00
2024-02-10T10:30:16.706Z,609.00
2024-02-10T10:31:17.496Z,614.00
2024-02-10T10:32:17.009Z,609.00
2024-02-10T10:33:16.932Z,611.00
2024-02-10T10:34:16.919Z,610.00
2024-02-10T10:35:16.956Z,612.00
2024-02-10T10:36:17.037Z,615.00
2024-02-10T10:37:17.053Z,616.00
2024-02-10T10:38:17.108Z,617.00
2024-02-10T10:39:17.168Z,613.00
2024-02-10T10:40:17.222Z,617.00
2024-02-10T10:41:17.283Z,617.00
2024-02-10T10:42:17.340Z,615.00
2024-02-10T10:43:17.391Z,618.00
2024-02-10T10:44:17.449Z,615.00
2024-02-10T10:45:17.511Z,614.00
2024-02-10T10:46:17.579Z,617.00
2024-02-10T10:47:17.692Z,615.00
2024-02-10T10:48:17.729Z,620.00
2024-02-10T10:49:17.816Z,618.00
2024-02-10T10:50:17.761Z,617.00
2024-02-10T10:51:17.787Z,619.00
2024-02-10T10:52:17.825Z,618.00
2024-02-10T10:53:17.903Z,616.00
2024-02-10T10:54:17.929Z,618.00
2024-02-10T10:55:17.967Z,618.00
2024-02-10T10:56:18.090Z,618.00
2024-02-10T10:57:18.492Z,618.00
2024-02-10T10:58:18.183Z,616.00
2024-02-10T10:59:18.128Z,617.00
2024-02-10T11:00:18.170Z,617.00
2024-02-10T11:01:18.751Z,617.00
2024-02-10T11:02:24.154Z,618.00
2024-02-10T11:03:19.311Z,618.00
2024-02-10T11:04:18.272Z,618.00
2024-02-10T11:05:18.685Z,618.00
2024-02-10T11:06:18.327Z,619.00
2024-02-10T11:07:18.302Z,619.00
2024-02-10T11:08:18.295Z,621.00
2024-02-10T11:09:18.306Z,618.00
2024-02-10T11:10:18.291Z,621.00
2024-02-10T11:11:18.284Z,624.00
2024-02-10T11:12:18.288Z,624.00
2024-02-10T11:13:18.287Z,623.00
2024-02-10T11:14:18.302Z,622.00
2024-02-10T11:15:18.313Z,623.00
2024-02-10T11:16:18.354Z,623.00
2024-02-10T11:17:18.521Z,629.00
2024-02-10T11:18:18.633Z,629.00
2024-02-10T11:19:18.799Z,623.00
2024-02-10T11:20:18.565Z,622.00
2024-02-10T11:21:18.619Z,625.00
2024-02-10T11:22:18.631Z,625.00
2024-02-10T11:23:18.685Z,626.00
2024-02-10T11:24:18.744Z,623.00
2024-02-10T11:25:18.911Z,624.00
2024-02-10T11:26:18.818Z,629.00
2024-02-10T11:27:18.863Z,625.00
2024-02-10T11:28:18.961Z,627.00
2024-02-10T11:29:19.000Z,624.00
2024-02-10T11:30:19.024Z,629.00
2024-02-10T11:31:19.173Z,624.00
2024-02-10T11:32:19.099Z,625.00
2024-02-10T11:33:19.311Z,624.00
2024-02-10T11:34:20.188Z,625.00
2024-02-10T11:35:19.327Z,623.00
2024-02-10T11:36:19.304Z,625.00
2024-02-10T11:37:19.411Z,626.00
2024-02-10T11:38:19.392Z,626.00
2024-02-10T11:39:19.434Z,628.00
2024-02-10T11:40:19.542Z,626.00
2024-02-10T11:41:19.524Z,624.00
2024-02-10T11:42:19.570Z,621.00
2024-02-10T11:43:19.754Z,626.00
2024-02-10T11:44:19.661Z,623.00
2024-02-10T11:45:19.710Z,625.00
2024-02-10T11:46:19.777Z,626.00
2024-02-10T11:47:19.791Z,627.00
2024-02-10T11:48:19.933Z,629.00
2024-02-10T11:49:19.977Z,628.00
2024-02-10T11:50:19.976Z,625.00
2024-02-10T11:51:19.949Z,625.00
2024-02-10T11:52:20.035Z,625.00
2024-02-10T11:53:20.024Z,628.00
2024-02-10T11:54:20.069Z,627.00
2024-02-10T11:55:20.195Z,626.00
2024-02-10T11:56:20.149Z,626.00
2024-02-10T11:57:20.189Z,625.00
2024-02-10T11:58:20.321Z,624.00
2024-02-10T11:59:20.284Z,627.00
2024-02-10T12:00:20.318Z,625.00
2024-02-10T12:01:20.413Z,623.00
2024-02-10T12:02:20.429Z,624.00
2024-02-10T12:03:20.506Z,622.00
2024-02-10T12:04:20.683Z,627.00
2024-02-10T12:05:20.789Z,625.00
2024-02-10T12:06:20.619Z,624.00
2024-02-10T12:07:20.936Z,627.00
2024-02-10T12:08:20.642Z,627.00
2024-02-10T12:09:20.667Z,625.00
2024-02-10T12:10:20.757Z,625.00
2024-02-10T12:11:20.764Z,629.00
2024-02-10T12:12:20.781Z,626.00
2024-02-10T12:13:20.891Z,627.00
2024-02-10T12:14:20.867Z,625.00
2024-02-10T12:15:20.930Z,624.00
2024-02-10T12:16:20.993Z,624.00
2024-02-10T12:17:21.167Z,626.00
2024-02-10T12:18:21.049Z,624.00
2024-02-10T12:19:21.162Z,625.00
2024-02-10T12:20:21.130Z,624.00
2024-02-10T12:21:21.173Z,624.00
2024-02-10T12:22:21.242Z,625.00
2024-02-10T12:23:21.283Z,626.00
2024-02-10T12:24:21.348Z,622.00
2024-02-10T12:25:21.364Z,623.00
2024-02-10T12:26:21.401Z,626.00
2024-02-10T12:27:21.433Z,624.00
2024-02-10T12:28:21.528Z,625.00
2024-02-10T12:29:21.529Z,626.00